Time;durP1;ratioP1;P1;durP2;ratioP2;P2;SDS_P1;SDS_P2;PMS_P1;PMS_P2;Temp;Humidity;BMP_temperature;BMP_pressure;BME280_temperature;BME280_humidity;BME280_pressure;Samples;Min_cycle;Max_cycle;Signal;HPM_P1;HPM_P2
2023/12/27 00:02:16;;;;;;;;;;;0.90;99.90;;;;;;5054592;28;20457;-61
2023/12/27 00:04:43;;;;;;;;;;;0.90;99.90;;;;;;5056928;28;19971;-57
2023/12/27 00:07:09;;;;;;;;;;;0.90;99.90;;;;;;5053805;28;19933;-60
2023/12/27 00:09:36;;;;;;;;;;;0.90;99.90;;;;;;5055710;28;19935;-58
2023/12/27 00:12:03;;;;;;;;;;;0.90;99.90;;;;;;5050814;28;19936;-59
2023/12/27 00:14:30;;;;;;;;;;;0.90;99.90;;;;;;5051604;28;19950;-60
2023/12/27 00:16:57;;;;;;;;;;;0.90;99.90;;;;;;5060524;28;20002;-58
2023/12/27 00:19:24;;;;;;;;;;;0.90;99.90;;;;;;5062013;28;19932;-58
2023/12/27 00:21:51;;;;;;;;;;;0.90;99.90;;;;;;5062155;28;19929;-60
2023/12/27 00:24:18;;;;;;;;;;;0.90;99.90;;;;;;5054485;28;20466;-58
2023/12/27 00:26:45;;;;;;;;;;;0.90;99.90;;;;;;5057158;28;19987;-57
2023/12/27 00:29:11;;;;;;;;;;;0.90;99.90;;;;;;5051299;28;19940;-60
2023/12/27 00:31:38;;;;;;;;;;;0.90;99.90;;;;;;5055072;28;19970;-58
2023/12/27 00:34:05;;;;;;;;;;;0.90;99.90;;;;;;5050187;28;19929;-58
2023/12/27 00:36:32;;;;;;;;;;;0.90;99.90;;;;;;5050187;28;20405;-59
2023/12/27 00:38:59;;;;;;;;;;;0.90;99.90;;;;;;5058327;28;19924;-61
2023/12/27 00:41:27;;;;;;;;;;;0.90;99.90;;;;;;5061502;28;19936;-57
2023/12/27 00:43:54;;;;;;;;;;;0.90;99.90;;;;;;5056911;28;19966;-61
2023/12/27 00:46:20;;;;;;;;;;;0.90;99.90;;;;;;5054648;28;20434;-59
2023/12/27 00:48:47;;;;;;;;;;;1.00;99.90;;;;;;5058280;28;19928;-58
2023/12/27 00:51:20;;;;;;;;;;;1.00;99.90;;;;;;5051286;28;19932;-59
2023/12/27 00:53:48;;;;;;;;;;;1.00;99.90;;;;;;5051821;28;19935;-58
2023/12/27 00:56:15;;;;;;;;;;;1.00;99.90;;;;;;5054489;28;19997;-60
2023/12/27 00:58:42;;;;;;;;;;;1.00;99.90;;;;;;5062205;28;19928;-60
2023/12/27 01:01:11;;;;;;;;;;;1.00;99.90;;;;;;5064175;28;19929;-61
2023/12/27 01:03:38;;;;;;;;;;;1.00;99.90;;;;;;5061203;28;19928;-60
2023/12/27 01:06:06;;;;;;;;;;;1.00;99.90;;;;;;5057614;28;19970;-62
2023/12/27 01:08:32;;;;;;;;;;;1.00;99.90;;;;;;5058340;28;19925;-58
2023/12/27 01:10:59;;;;;;;;;;;1.00;99.90;;;;;;5057445;28;20452;-60
2023/12/27 01:13:26;;;;;;;;;;;1.00;99.90;;;;;;5054293;28;19928;-59
2023/12/27 01:15:53;;;;;;;;;;;1.00;99.90;;;;;;5053979;28;19979;-60
2023/12/27 01:18:20;;;;;;;;;;;0.90;99.90;;;;;;5050781;28;19940;-58
2023/12/27 01:20:47;;;;;;;;;;;0.90;99.90;;;;;;5049773;28;19929;-59
2023/12/27 01:23:14;;;;;;;;;;;0.90;99.90;;;;;;5047282;28;19988;-58
2023/12/27 01:25:41;;;;;;;;;;;0.90;99.90;;;;;;5050976;28;19935;-59
2023/12/27 01:28:08;;;;;;;;;;;0.90;99.90;;;;;;5057704;28;19929;-59
2023/12/27 01:30:35;;;;;;;;;;;0.90;99.90;;;;;;5061146;28;19928;-60
2023/12/27 01:33:03;;;;;;;;;;;0.90;99.90;;;;;;5050844;28;19924;-60
2023/12/27 01:35:30;;;;;;;;;;;0.90;99.90;;;;;;5058268;28;20015;-58
2023/12/27 01:37:57;;;;;;;;;;;1.00;99.90;;;;;;5052673;28;20298;-61
2023/12/27 01:40:24;;;;;;;;;;;1.00;99.90;;;;;;5052725;28;20019;-59
2023/12/27 01:42:51;;;;;;;;;;;1.00;99.90;;;;;;5049460;28;20550;-59
2023/12/27 01:45:18;;;;;;;;;;;1.00;99.90;;;;;;5049639;28;20050;-59
2023/12/27 01:47:46;;;;;;;;;;;1.00;99.90;;;;;;5046821;28;20349;-57
2023/12/27 01:50:13;;;;;;;;;;;1.00;99.90;;;;;;5055993;28;19953;-60
2023/12/27 01:52:41;;;;;;;;;;;1.00;99.90;;;;;;5056837;28;19932;-60
2023/12/27 01:55:09;;;;;;;;;;;1.10;99.90;;;;;;5092456;28;19929;-60
2023/12/27 01:57:39;;;;;;;;;;;1.00;99.90;;;;;;5056622;28;19928;-60
2023/12/27 02:00:08;;;;;;;;;;;1.00;99.90;;;;;;5067496;28;19964;-59
2023/12/27 02:02:41;;;;;;;;;;;1.00;99.90;;;;;;5051899;28;19963;-58
2023/12/27 02:05:08;;;;;;;;;;;1.10;99.90;;;;;;5048916;28;19934;-64
2023/12/27 02:07:36;;;;;;;;;;;1.00;99.90;;;;;;5048753;28;19925;-57
2023/12/27 02:10:03;;;;;;;;;;;1.00;99.90;;;;;;5042598;28;19982;-58
2023/12/27 02:12:30;;;;;;;;;;;0.90;99.90;;;;;;5065576;28;19928;-59
2023/12/27 02:14:58;;;;;;;;;;;1.00;99.90;;;;;;5048520;28;20278;-60
2023/12/27 02:17:25;;;;;;;;;;;1.00;99.90;;;;;;5055677;28;20026;-63
2023/12/27 02:19:53;;;;;;;;;;;1.00;99.90;;;;;;5053877;28;19982;-59
2023/12/27 02:22:20;;;;;;;;;;;1.00;99.90;;;;;;5052655;28;20018;-57
2023/12/27 02:24:48;;;;;;;;;;;1.00;99.90;;;;;;5053510;28;20034;-58
2023/12/27 02:27:15;;;;;;;;;;;1.10;99.90;;;;;;5054573;28;19936;-60
2023/12/27 02:29:42;;;;;;;;;;;1.10;99.90;;;;;;5050893;28;19929;-58
2023/12/27 02:32:09;;;;;;;;;;;1.00;99.90;;;;;;5048639;28;19960;-63
2023/12/27 02:34:35;;;;;;;;;;;1.10;99.90;;;;;;5045879;28;19933;-59
2023/12/27 02:37:03;;;;;;;;;;;1.10;99.90;;;;;;5088120;28;19928;-57
2023/12/27 02:39:29;;;;;;;;;;;1.10;99.90;;;;;;5059902;28;19928;-60
2023/12/27 02:41:57;;;;;;;;;;;1.10;99.90;;;;;;5058018;28;19972;-59
2023/12/27 02:44:26;;;;;;;;;;;1.10;99.90;;;;;;5058322;28;19966;-60
2023/12/27 02:46:53;;;;;;;;;;;1.10;99.90;;;;;;5055069;28;19929;-60
2023/12/27 02:49:21;;;;;;;;;;;1.10;99.90;;;;;;5047672;28;19929;-60
2023/12/27 02:51:48;;;;;;;;;;;1.10;99.90;;;;;;5047256;28;19925;-64
2023/12/27 02:54:14;;;;;;;;;;;1.10;99.90;;;;;;5052612;28;19935;-63
2023/12/27 02:56:41;;;;;;;;;;;1.10;99.90;;;;;;5047961;28;19982;-58
2023/12/27 02:59:09;;;;;;;;;;;1.10;99.90;;;;;;5047089;28;20437;-60
2023/12/27 03:01:36;;;;;;;;;;;1.10;99.90;;;;;;5056455;28;20681;-63
2023/12/27 03:04:02;;;;;;;;;;;1.00;99.90;;;;;;5087021;28;20391;-59
2023/12/27 03:06:29;;;;;;;;;;;1.00;99.90;;;;;;5052737;28;19931;-58
2023/12/27 03:08:56;;;;;;;;;;;1.00;99.90;;;;;;5046210;28;19929;-60
2023/12/27 03:11:23;;;;;;;;;;;1.00;99.90;;;;;;5046161;28;19943;-57
2023/12/27 03:13:50;;;;;;;;;;;1.00;99.90;;;;;;5046030;28;19932;-58
2023/12/27 03:16:18;;;;;;;;;;;1.00;99.90;;;;;;5051730;28;19972;-61
2023/12/27 03:18:46;;;;;;;;;;;1.00;99.90;;;;;;5086179;28;19932;-57
2023/12/27 03:21:13;;;;;;;;;;;1.00;99.90;;;;;;5048550;28;20024;-58
2023/12/27 03:23:40;;;;;;;;;;;1.00;99.90;;;;;;5057743;28;19932;-60
2023/12/27 03:26:06;;;;;;;;;;;1.10;99.90;;;;;;5057113;28;20058;-58
2023/12/27 03:28:33;;;;;;;;;;;1.00;99.90;;;;;;5060691;28;19936;-59
2023/12/27 03:31:00;;;;;;;;;;;1.10;99.90;;;;;;5056454;28;19936;-61
2023/12/27 03:33:27;;;;;;;;;;;1.10;99.90;;;;;;5057983;28;20378;-59
2023/12/27 03:35:54;;;;;;;;;;;1.10;99.90;;;;;;5054200;28;19978;-59
2023/12/27 03:38:21;;;;;;;;;;;1.10;99.90;;;;;;5053257;28;19935;-59
2023/12/27 03:40:48;;;;;;;;;;;1.10;99.90;;;;;;5052578;28;19935;-58
2023/12/27 03:43:14;;;;;;;;;;;1.20;99.90;;;;;;5052979;28;19929;-57
2023/12/27 03:45:41;;;;;;;;;;;1.20;99.90;;;;;;5051593;28;19979;-59
2023/12/27 03:48:08;;;;;;;;;;;1.20;99.90;;;;;;5059803;28;19925;-62
2023/12/27 03:50:35;;;;;;;;;;;1.20;99.90;;;;;;5050790;28;19936;-62
2023/12/27 03:53:02;;;;;;;;;;;1.20;99.90;;;;;;5056908;28;19928;-57
2023/12/27 03:55:29;;;;;;;;;;;1.20;99.90;;;;;;5055181;28;19925;-64
2023/12/27 03:57:56;;;;;;;;;;;1.30;99.90;;;;;;5057630;28;19933;-61
2023/12/27 04:00:23;;;;;;;;;;;1.30;99.90;;;;;;5052143;28;20298;-59
2023/12/27 04:02:50;;;;;;;;;;;1.30;99.90;;;;;;5055304;28;20383;-58
2023/12/27 04:05:17;;;;;;;;;;;1.30;99.90;;;;;;5049971;28;19995;-62
2023/12/27 04:07:43;;;;;;;;;;;1.30;99.90;;;;;;5050066;28;19925;-60
2023/12/27 04:10:10;;;;;;;;;;;1.30;99.90;;;;;;5051093;28;19928;-61
2023/12/27 04:12:37;;;;;;;;;;;1.30;99.90;;;;;;5085942;28;19934;-60
2023/12/27 04:15:05;;;;;;;;;;;1.20;99.90;;;;;;5057070;28;20385;-59
2023/12/27 04:17:31;;;;;;;;;;;1.20;99.90;;;;;;5061846;28;19925;-61
2023/12/27 04:19:58;;;;;;;;;;;1.10;99.90;;;;;;5051896;28;20540;-61
2023/12/27 04:22:25;;;;;;;;;;;1.20;99.90;;;;;;5051717;28;20004;-60
2023/12/27 04:24:52;;;;;;;;;;;1.10;99.90;;;;;;5055741;28;20037;-58
2023/12/27 04:27:21;;;;;;;;;;;1.00;99.90;;;;;;5063121;28;19925;-61
2023/12/27 04:29:48;;;;;;;;;;;1.00;99.90;;;;;;5065611;28;19935;-61
2023/12/27 04:32:15;;;;;;;;;;;1.00;99.90;;;;;;5049975;28;19951;-59
2023/12/27 04:34:42;;;;;;;;;;;0.90;99.90;;;;;;5061811;28;20396;-58
2023/12/27 04:37:09;;;;;;;;;;;0.90;99.90;;;;;;5061393;28;19964;-61
2023/12/27 04:39:36;;;;;;;;;;;0.90;99.90;;;;;;5060893;28;19928;-57
2023/12/27 04:42:03;;;;;;;;;;;0.80;99.90;;;;;;5056064;28;19935;-59
2023/12/27 04:44:30;;;;;;;;;;;0.80;99.90;;;;;;5086402;28;19928;-59
2023/12/27 04:46:57;;;;;;;;;;;0.80;99.90;;;;;;5054270;28;20035;-58
2023/12/27 04:49:24;;;;;;;;;;;0.80;99.90;;;;;;5050298;28;19924;-58
2023/12/27 04:51:51;;;;;;;;;;;0.80;99.90;;;;;;5045823;28;19994;-62
2023/12/27 04:54:18;;;;;;;;;;;0.80;99.90;;;;;;5062002;28;19928;-60
2023/12/27 04:56:45;;;;;;;;;;;0.80;99.90;;;;;;5087517;28;19928;-58
2023/12/27 04:59:12;;;;;;;;;;;0.80;99.90;;;;;;5081012;28;19933;-58
2023/12/27 05:01:39;;;;;;;;;;;0.80;99.90;;;;;;5056305;28;19972;-59
2023/12/27 05:04:06;;;;;;;;;;;0.80;99.90;;;;;;5064821;28;19933;-60
2023/12/27 05:06:32;;;;;;;;;;;0.80;99.90;;;;;;5051551;28;20039;-58
2023/12/27 05:09:03;;;;;;;;;;;0.90;99.90;;;;;;5050104;28;20561;-58
2023/12/27 05:11:31;;;;;;;;;;;0.90;99.90;;;;;;5049523;28;20307;-59
2023/12/27 05:13:57;;;;;;;;;;;0.90;99.90;;;;;;5053048;28;19928;-60
2023/12/27 05:16:24;;;;;;;;;;;0.90;99.90;;;;;;5052829;28;19925;-63
2023/12/27 05:18:51;;;;;;;;;;;0.90;99.90;;;;;;5049179;28;19929;-61
2023/12/27 05:21:18;;;;;;;;;;;0.90;99.90;;;;;;5056654;28;20746;-60
2023/12/27 05:23:45;;;;;;;;;;;0.90;99.90;;;;;;5057548;28;19932;-60
2023/12/27 05:26:12;;;;;;;;;;;0.90;99.90;;;;;;5055793;28;20020;-61
2023/12/27 05:28:40;;;;;;;;;;;1.00;99.90;;;;;;5062539;28;20731;-58
2023/12/27 05:31:07;;;;;;;;;;;1.00;99.90;;;;;;5053056;28;19938;-61
2023/12/27 05:33:34;;;;;;;;;;;1.00;99.90;;;;;;5048328;28;20403;-61
2023/12/27 05:36:01;;;;;;;;;;;0.90;99.90;;;;;;5050660;28;19986;-61
2023/12/27 05:38:28;;;;;;;;;;;0.90;99.90;;;;;;5050617;28;19975;-60
2023/12/27 05:40:55;;;;;;;;;;;0.90;99.90;;;;;;5055604;28;19932;-62
2023/12/27 05:43:22;;;;;;;;;;;0.90;99.90;;;;;;5048379;28;19975;-58
2023/12/27 05:45:49;;;;;;;;;;;0.80;99.90;;;;;;5057505;28;19929;-59
2023/12/27 05:48:16;;;;;;;;;;;0.90;99.90;;;;;;5057469;28;19936;-62
2023/12/27 05:50:43;;;;;;;;;;;0.80;99.90;;;;;;5056410;28;19928;-60
2023/12/27 05:53:10;;;;;;;;;;;0.90;99.90;;;;;;5056536;28;20454;-58
2023/12/27 05:55:40;;;;;;;;;;;0.90;99.90;;;;;;5084491;28;20354;-59
2023/12/27 05:58:07;;;;;;;;;;;0.90;99.90;;;;;;5053504;28;19935;-60
2023/12/27 06:00:34;;;;;;;;;;;0.90;99.90;;;;;;5050116;28;19932;-58
2023/12/27 06:03:01;;;;;;;;;;;0.90;99.90;;;;;;5046579;28;20072;-58
2023/12/27 06:05:28;;;;;;;;;;;0.90;99.90;;;;;;5049778;28;19929;-58
2023/12/27 06:07:55;;;;;;;;;;;0.90;99.90;;;;;;5054317;28;19929;-61
2023/12/27 06:10:22;;;;;;;;;;;0.90;99.90;;;;;;5056300;28;20314;-58
2023/12/27 06:12:49;;;;;;;;;;;0.90;99.90;;;;;;5054059;28;20290;-57
2023/12/27 06:15:16;;;;;;;;;;;0.90;99.90;;;;;;5058020;28;19925;-58
2023/12/27 06:17:43;;;;;;;;;;;0.90;99.90;;;;;;5055370;28;19924;-57
2023/12/27 06:20:10;;;;;;;;;;;0.90;99.90;;;;;;5050855;28;19939;-62
2023/12/27 06:22:37;;;;;;;;;;;0.90;99.90;;;;;;5050058;28;20648;-57
2023/12/27 06:25:04;;;;;;;;;;;0.90;99.90;;;;;;5049954;28;20412;-59
2023/12/27 06:27:30;;;;;;;;;;;0.90;99.90;;;;;;5047915;28;20025;-63
2023/12/27 06:29:57;;;;;;;;;;;0.90;99.90;;;;;;5046717;28;20219;-60
2023/12/27 06:32:24;;;;;;;;;;;0.90;99.90;;;;;;5053825;28;19962;-60
2023/12/27 06:34:51;;;;;;;;;;;0.90;99.90;;;;;;5058552;28;20363;-61
2023/12/27 06:37:18;;;;;;;;;;;0.90;99.90;;;;;;5056992;28;20023;-58
2023/12/27 06:39:45;;;;;;;;;;;1.00;99.90;;;;;;5057287;28;20680;-61
2023/12/27 06:42:11;;;;;;;;;;;1.00;99.90;;;;;;5054160;28;19932;-59
2023/12/27 06:44:38;;;;;;;;;;;1.00;99.90;;;;;;5049824;28;19932;-62
2023/12/27 06:47:05;;;;;;;;;;;1.00;99.90;;;;;;5051045;28;19960;-59
2023/12/27 06:49:33;;;;;;;;;;;1.00;99.90;;;;;;5051716;28;19929;-61
2023/12/27 06:51:59;;;;;;;;;;;1.00;99.90;;;;;;5052799;28;19929;-59
2023/12/27 06:54:26;;;;;;;;;;;0.90;99.90;;;;;;5057283;28;20034;-58
2023/12/27 06:56:53;;;;;;;;;;;1.00;99.90;;;;;;5058219;28;19972;-59
2023/12/27 06:59:20;;;;;;;;;;;1.00;99.90;;;;;;5057167;28;19970;-59
2023/12/27 07:01:47;;;;;;;;;;;1.00;99.90;;;;;;5058709;28;19964;-58
2023/12/27 07:04:14;;;;;;;;;;;1.00;99.90;;;;;;5058055;28;19925;-62
2023/12/27 07:06:41;;;;;;;;;;;1.00;99.90;;;;;;5056103;28;19925;-59
2023/12/27 07:09:09;;;;;;;;;;;1.00;99.90;;;;;;5054932;28;20267;-61
2023/12/27 07:11:36;;;;;;;;;;;1.00;99.90;;;;;;5053273;28;19928;-59
2023/12/27 07:14:03;;;;;;;;;;;1.00;99.90;;;;;;5052105;28;19928;-60
2023/12/27 07:16:30;;;;;;;;;;;1.00;99.90;;;;;;5050517;28;19967;-60
2023/12/27 07:18:57;;;;;;;;;;;1.00;99.90;;;;;;5060830;28;20334;-60
2023/12/27 07:21:24;;;;;;;;;;;1.00;99.90;;;;;;5058033;28;20467;-59
2023/12/27 07:23:50;;;;;;;;;;;1.00;99.90;;;;;;5062723;28;19935;-61
2023/12/27 07:26:18;;;;;;;;;;;1.00;99.90;;;;;;5055447;28;19974;-61
2023/12/27 07:28:45;;;;;;;;;;;1.10;99.90;;;;;;5060053;28;20055;-64
2023/12/27 07:31:12;;;;;;;;;;;1.10;99.90;;;;;;5053896;28;19931;-59
2023/12/27 07:33:39;;;;;;;;;;;1.00;99.90;;;;;;5055850;28;19960;-59
2023/12/27 07:36:07;;;;;;;;;;;1.00;99.90;;;;;;5053198;28;19929;-60
2023/12/27 07:38:34;;;;;;;;;;;1.00;99.90;;;;;;5050915;28;20306;-58
2023/12/27 07:41:01;;;;;;;;;;;1.10;99.90;;;;;;5052890;28;19959;-57
2023/12/27 07:43:28;;;;;;;;;;;1.10;99.90;;;;;;5061633;28;19963;-61
2023/12/27 07:45:54;;;;;;;;;;;1.10;99.90;;;;;;5058532;28;20386;-59
2023/12/27 07:48:22;;;;;;;;;;;1.20;99.90;;;;;;5060885;28;20433;-58
2023/12/27 07:50:50;;;;;;;;;;;1.10;99.90;;;;;;5054420;28;20011;-59
2023/12/27 07:53:16;;;;;;;;;;;1.20;99.90;;;;;;5058576;28;20520;-60
2023/12/27 07:55:43;;;;;;;;;;;1.20;99.90;;;;;;5055731;28;19928;-60
2023/12/27 07:58:10;;;;;;;;;;;1.20;99.90;;;;;;5053673;28;19936;-59
2023/12/27 08:00:37;;;;;;;;;;;1.20;99.90;;;;;;5049869;28;20468;-61
2023/12/27 08:03:08;;;;;;;;;;;1.20;99.90;;;;;;5049294;28;19936;-60
2023/12/27 08:05:35;;;;;;;;;;;1.20;99.90;;;;;;5055718;28;19932;-59
2023/12/27 08:08:03;;;;;;;;;;;1.20;99.90;;;;;;5060620;28;19928;-62
2023/12/27 08:10:31;;;;;;;;;;;1.10;99.90;;;;;;5060633;28;19990;-58
2023/12/27 08:12:58;;;;;;;;;;;1.10;99.90;;;;;;5054000;28;20268;-61
2023/12/27 08:15:25;;;;;;;;;;;1.10;99.90;;;;;;5057865;28;19928;-57
2023/12/27 08:17:52;;;;;;;;;;;1.20;99.90;;;;;;5051902;28;19925;-65
2023/12/27 08:20:19;;;;;;;;;;;1.10;99.90;;;;;;5052521;28;20047;-60
2023/12/27 08:22:49;;;;;;;;;;;1.20;99.90;;;;;;5050279;28;19932;-60
2023/12/27 08:25:16;;;;;;;;;;;1.20;99.90;;;;;;5051915;28;20364;-60
2023/12/27 08:27:43;;;;;;;;;;;1.20;99.90;;;;;;5057277;28;20016;-62
2023/12/27 08:30:10;;;;;;;;;;;1.20;99.90;;;;;;5063832;28;19928;-60
2023/12/27 08:32:37;;;;;;;;;;;1.20;99.90;;;;;;5058282;28;19928;-60
2023/12/27 08:35:05;;;;;;;;;;;1.30;99.90;;;;;;5060151;28;19929;-58
2023/12/27 08:37:32;;;;;;;;;;;1.30;99.90;;;;;;5057137;28;20171;-60
2023/12/27 08:39:58;;;;;;;;;;;1.30;99.90;;;;;;5055061;28;20042;-58
2023/12/27 08:42:25;;;;;;;;;;;1.30;99.90;;;;;;5056500;28;19925;-57
2023/12/27 08:44:52;;;;;;;;;;;1.30;99.90;;;;;;5053840;28;19929;-60
2023/12/27 08:47:19;;;;;;;;;;;1.30;99.90;;;;;;5051661;28;19936;-58
2023/12/27 08:49:46;;;;;;;;;;;1.30;99.90;;;;;;5050118;28;19967;-60
2023/12/27 08:52:13;;;;;;;;;;;1.30;99.90;;;;;;5052823;28;20034;-62
2023/12/27 08:54:40;;;;;;;;;;;1.30;99.90;;;;;;5058468;28;19932;-60
2023/12/27 08:57:07;;;;;;;;;;;1.30;99.90;;;;;;5054563;28;19933;-62
2023/12/27 08:59:34;;;;;;;;;;;1.30;99.90;;;;;;5055754;28;19928;-58
2023/12/27 09:02:01;;;;;;;;;;;1.30;99.90;;;;;;5055693;28;19925;-62
2023/12/27 09:04:28;;;;;;;;;;;1.30;99.90;;;;;;5053574;28;19933;-58
2023/12/27 09:06:55;;;;;;;;;;;1.30;99.90;;;;;;5054186;28;19929;-60
2023/12/27 09:09:22;;;;;;;;;;;1.30;99.90;;;;;;5050081;28;19978;-61
2023/12/27 09:11:49;;;;;;;;;;;1.30;99.90;;;;;;5051645;28;19968;-60
2023/12/27 09:14:16;;;;;;;;;;;1.30;99.90;;;;;;5050495;28;19967;-57
2023/12/27 09:16:44;;;;;;;;;;;1.30;99.90;;;;;;5058309;28;19936;-58
2023/12/27 09:19:11;;;;;;;;;;;1.30;99.90;;;;;;5054758;28;20274;-65
2023/12/27 09:21:45;;;;;;;;;;;1.30;99.90;;;;;;5057047;28;19958;-61
2023/12/27 09:24:12;;;;;;;;;;;1.30;99.90;;;;;;5055162;28;20032;-62
2023/12/27 09:26:39;;;;;;;;;;;1.40;99.90;;;;;;5056771;28;19928;-60
2023/12/27 09:29:09;;;;;;;;;;;1.40;99.90;;;;;;5055001;28;20133;-59
2023/12/27 09:31:36;;;;;;;;;;;1.30;99.90;;;;;;5053781;28;19932;-64
2023/12/27 09:34:03;;;;;;;;;;;1.30;99.90;;;;;;5053025;28;19972;-60
2023/12/27 09:36:31;;;;;;;;;;;1.40;99.90;;;;;;5051963;28;19929;-59
2023/12/27 09:38:58;;;;;;;;;;;1.30;99.90;;;;;;5053279;28;19986;-60
2023/12/27 09:41:25;;;;;;;;;;;1.30;99.90;;;;;;5057032;28;20293;-58
2023/12/27 09:43:53;;;;;;;;;;;1.30;99.90;;;;;;5056542;28;20031;-58
2023/12/27 09:46:21;;;;;;;;;;;1.30;99.90;;;;;;5054963;28;20375;-58
2023/12/27 09:48:50;;;;;;;;;;;1.20;99.90;;;;;;5053111;28;19959;-59
2023/12/27 09:51:23;;;;;;;;;;;1.30;99.90;;;;;;5049919;28;20469;-57
2023/12/27 09:53:50;;;;;;;;;;;1.30;99.90;;;;;;5049847;28;19928;-61
2023/12/27 09:56:18;;;;;;;;;;;1.30;99.90;;;;;;5051288;28;19928;-58
2023/12/27 09:58:48;;;;;;;;;;;1.30;99.90;;;;;;5049543;28;19929;-62
2023/12/27 10:01:16;;;;;;;;;;;1.30;99.90;;;;;;5046657;28;19968;-59
2023/12/27 10:03:47;;;;;;;;;;;1.30;99.90;;;;;;5060658;28;19925;-58
2023/12/27 10:06:29;;;;;;;;;;;1.30;99.90;;;;;;5051136;28;19936;-64
2023/12/27 10:08:57;;;;;;;;;;;1.20;99.90;;;;;;5056788;28;19935;-61
2023/12/27 10:11:24;;;;;;;;;;;1.20;99.90;;;;;;5053786;28;20425;-58
2023/12/27 10:13:51;;;;;;;;;;;1.20;99.90;;;;;;5050881;28;19978;-58
2023/12/27 10:16:18;;;;;;;;;;;1.20;99.90;;;;;;5052350;28;19942;-62
2023/12/27 10:18:46;;;;;;;;;;;1.20;99.90;;;;;;5051863;28;19936;-61
2023/12/27 10:21:14;;;;;;;;;;;1.20;99.90;;;;;;5048012;28;19935;-61
2023/12/27 10:23:41;;;;;;;;;;;1.20;99.90;;;;;;5044190;28;19933;-57
2023/12/27 10:26:08;;;;;;;;;;;1.20;99.90;;;;;;5049955;28;19968;-60
2023/12/27 10:28:35;;;;;;;;;;;1.20;99.90;;;;;;5060390;28;19978;-58
2023/12/27 10:31:03;;;;;;;;;;;1.20;99.90;;;;;;5056313;28;19974;-60
2023/12/27 10:33:40;;;;;;;;;;;1.20;99.90;;;;;;5055570;28;19928;-57
2023/12/27 10:36:08;;;;;;;;;;;1.20;99.90;;;;;;5053126;28;19960;-60
2023/12/27 10:38:37;;;;;;;;;;;1.20;99.90;;;;;;5051157;28;19929;-58
2023/12/27 10:41:05;;;;;;;;;;;1.20;99.90;;;;;;5048475;28;20051;-59
2023/12/27 10:43:32;;;;;;;;;;;1.20;99.90;;;;;;5051038;28;19968;-58
2023/12/27 10:45:59;;;;;;;;;;;1.20;99.90;;;;;;5048812;28;19933;-62
2023/12/27 10:48:33;;;;;;;;;;;1.20;99.90;;;;;;5045399;28;19972;-61
2023/12/27 10:51:00;;;;;;;;;;;1.20;99.90;;;;;;5053695;28;19928;-63
2023/12/27 10:53:29;;;;;;;;;;;1.20;99.90;;;;;;5054499;28;19929;-60
2023/12/27 10:55:58;;;;;;;;;;;1.20;99.90;;;;;;5055267;28;19936;-60
2023/12/27 10:58:25;;;;;;;;;;;1.20;99.90;;;;;;5053075;28;20271;-59
2023/12/27 11:00:52;;;;;;;;;;;1.20;99.90;;;;;;5050784;28;19928;-61
2023/12/27 11:03:20;;;;;;;;;;;1.20;99.90;;;;;;5049675;28;19928;-61
2023/12/27 11:05:48;;;;;;;;;;;1.20;99.90;;;;;;5048846;28;19935;-58
2023/12/27 11:08:16;;;;;;;;;;;1.20;99.90;;;;;;5048176;28;19928;-58
2023/12/27 11:10:45;;;;;;;;;;;1.20;99.90;;;;;;5047280;28;20001;-60
2023/12/27 11:13:14;;;;;;;;;;;1.20;99.90;;;;;;5046442;28;19977;-61
2023/12/27 11:15:44;;;;;;;;;;;1.20;99.90;;;;;;5059196;28;20019;-61
2023/12/27 11:18:12;;;;;;;;;;;1.10;99.90;;;;;;5057672;28;19939;-61
2023/12/27 11:20:40;;;;;;;;;;;1.20;99.90;;;;;;5050090;28;19970;-62
2023/12/27 11:23:07;;;;;;;;;;;1.20;99.90;;;;;;5053665;28;19935;-58
2023/12/27 11:25:34;;;;;;;;;;;1.10;99.90;;;;;;5053177;28;20673;-59
2023/12/27 11:28:02;;;;;;;;;;;1.10;99.90;;;;;;5051578;28;19928;-60
2023/12/27 11:30:31;;;;;;;;;;;1.10;99.90;;;;;;5047847;28;19935;-61
2023/12/27 11:32:58;;;;;;;;;;;1.10;99.90;;;;;;5048450;28;20388;-58
2023/12/27 11:35:29;;;;;;;;;;;1.10;99.90;;;;;;5050774;28;19978;-62
2023/12/27 11:38:12;;;;;;;;;;;1.20;99.90;;;;;;5058746;28;19924;-62
2023/12/27 11:40:39;;;;;;;;;;;1.20;99.90;;;;;;5056991;28;19978;-58
2023/12/27 11:43:07;;;;;;;;;;;1.20;99.90;;;;;;5060391;28;19954;-59
2023/12/27 11:45:52;;;;;;;;;;;1.20;99.90;;;;;;5058641;28;19964;-60
2023/12/27 11:48:18;;;;;;;;;;;1.20;99.90;;;;;;5055910;28;19936;-58
2023/12/27 11:50:45;;;;;;;;;;;1.20;99.90;;;;;;5055821;28;19951;-59
2023/12/27 11:53:13;;;;;;;;;;;1.10;99.90;;;;;;5053006;28;19960;-63
2023/12/27 11:55:41;;;;;;;;;;;1.10;99.90;;;;;;5051505;28;19928;-61
2023/12/27 11:58:08;;;;;;;;;;;1.10;99.90;;;;;;5049595;28;19929;-58
2023/12/27 12:00:36;;;;;;;;;;;1.10;99.90;;;;;;5056425;28;19925;-59
2023/12/27 12:03:07;;;;;;;;;;;1.10;99.90;;;;;;5053946;28;19959;-61
2023/12/27 12:05:49;;;;;;;;;;;1.10;99.90;;;;;;5058578;28;20330;-60
2023/12/27 12:08:25;;;;;;;;;;;1.20;99.90;;;;;;5052418;28;20325;-62
2023/12/27 12:11:10;;;;;;;;;;;1.20;99.90;;;;;;5056361;28;19929;-60
2023/12/27 12:13:38;;;;;;;;;;;1.10;99.90;;;;;;5053086;28;19935;-58
2023/12/27 12:16:05;;;;;;;;;;;1.10;99.90;;;;;;5052620;28;20526;-59
2023/12/27 12:18:39;;;;;;;;;;;1.10;99.90;;;;;;5052286;28;19972;-62
2023/12/27 12:21:07;;;;;;;;;;;1.10;99.90;;;;;;5048952;28;19955;-58
2023/12/27 12:23:34;;;;;;;;;;;1.10;99.90;;;;;;5055823;28;20374;-58
2023/12/27 12:26:02;;;;;;;;;;;1.10;99.90;;;;;;5063634;28;20023;-59
2023/12/27 12:28:29;;;;;;;;;;;1.10;99.90;;;;;;5062149;28;20391;-60
2023/12/27 12:30:56;;;;;;;;;;;1.10;99.90;;;;;;5058122;28;19929;-58
2023/12/27 12:33:24;;;;;;;;;;;1.10;99.90;;;;;;5060253;28;19929;-60
2023/12/27 12:35:53;;;;;;;;;;;1.10;99.90;;;;;;5054465;28;19936;-61
2023/12/27 12:38:20;;;;;;;;;;;1.10;99.90;;;;;;5053244;28;19929;-67
2023/12/27 12:40:47;;;;;;;;;;;1.10;99.90;;;;;;5055718;28;19952;-60
2023/12/27 12:43:15;;;;;;;;;;;1.00;99.90;;;;;;5050910;28;19929;-63
2023/12/27 12:45:43;;;;;;;;;;;1.10;99.90;;;;;;5053148;28;20358;-60
2023/12/27 12:48:10;;;;;;;;;;;1.00;99.90;;;;;;5059145;28;20631;-63
2023/12/27 12:50:37;;;;;;;;;;;1.00;99.90;;;;;;5054483;28;20039;-61
2023/12/27 12:53:14;;;;;;;;;;;1.00;99.90;;;;;;5053960;28;20422;-58
2023/12/27 12:55:43;;;;;;;;;;;1.00;99.90;;;;;;5056692;28;19925;-57
2023/12/27 12:58:11;;;;;;;;;;;1.00;99.90;;;;;;5055282;28;20022;-59
2023/12/27 13:00:38;;;;;;;;;;;1.00;99.90;;;;;;5052513;28;19970;-59
2023/12/27 13:03:08;;;;;;;;;;;0.90;99.90;;;;;;5054462;28;19933;-59
2023/12/27 13:05:35;;;;;;;;;;;0.90;99.90;;;;;;5049630;28;19925;-62
2023/12/27 13:08:05;;;;;;;;;;;0.90;99.90;;;;;;5048157;28;19935;-58
2023/12/27 13:10:34;;;;;;;;;;;0.90;99.90;;;;;;5055570;28;20031;-59
2023/12/27 13:13:01;;;;;;;;;;;0.90;99.90;;;;;;5089670;28;19932;-60
2023/12/27 13:15:28;;;;;;;;;;;0.90;99.90;;;;;;5058199;28;19968;-58
2023/12/27 13:17:55;;;;;;;;;;;0.90;99.90;;;;;;5053418;28;19929;-61
2023/12/27 13:20:23;;;;;;;;;;;0.90;99.90;;;;;;5055671;28;20019;-58
2023/12/27 13:22:49;;;;;;;;;;;0.90;99.90;;;;;;5052451;28;19929;-58
2023/12/27 13:25:19;;;;;;;;;;;0.80;99.90;;;;;;5053482;28;19950;-59
2023/12/27 13:27:46;;;;;;;;;;;0.90;99.90;;;;;;5048769;28;20485;-61
2023/12/27 13:30:28;;;;;;;;;;;0.90;99.90;;;;;;5049694;28;20298;-59
2023/12/27 13:32:58;;;;;;;;;;;0.90;99.90;;;;;;5049645;28;19928;-62
2023/12/27 13:35:27;;;;;;;;;;;0.80;99.90;;;;;;5061183;28;19928;-62
2023/12/27 13:37:55;;;;;;;;;;;0.80;99.90;;;;;;5057122;28;19928;-58
2023/12/27 13:40:23;;;;;;;;;;;0.80;99.90;;;;;;5058052;28;20019;-58
2023/12/27 13:42:49;;;;;;;;;;;0.80;99.90;;;;;;5056304;28;19925;-60
2023/12/27 13:45:20;;;;;;;;;;;0.80;99.90;;;;;;5053085;28;19935;-60
2023/12/27 13:47:47;;;;;;;;;;;0.80;99.90;;;;;;5052461;28;20041;-60
2023/12/27 13:50:14;;;;;;;;;;;0.80;99.90;;;;;;5050332;28;19928;-64
2023/12/27 13:52:41;;;;;;;;;;;0.80;99.90;;;;;;5049394;28;19928;-61
2023/12/27 13:55:07;;;;;;;;;;;0.80;99.90;;;;;;5049280;28;19932;-58
2023/12/27 13:57:35;;;;;;;;;;;0.80;99.90;;;;;;5049386;28;20111;-57
2023/12/27 14:00:03;;;;;;;;;;;0.80;99.90;;;;;;5055499;28;19935;-61
2023/12/27 14:02:36;;;;;;;;;;;0.80;99.90;;;;;;5054128;28;19931;-58
2023/12/27 14:05:03;;;;;;;;;;;0.80;99.90;;;;;;5053228;28;19929;-61
2023/12/27 14:07:29;;;;;;;;;;;0.70;99.90;;;;;;5056742;28;19928;-59
2023/12/27 14:09:56;;;;;;;;;;;0.70;99.90;;;;;;5056033;28;19924;-58
2023/12/27 14:12:28;;;;;;;;;;;0.70;99.90;;;;;;5050036;28;19936;-60
2023/12/27 14:14:56;;;;;;;;;;;0.70;99.90;;;;;;5050212;28;20353;-58
2023/12/27 14:17:26;;;;;;;;;;;0.70;99.90;;;;;;5048273;28;20426;-58
2023/12/27 14:19:53;;;;;;;;;;;0.70;99.90;;;;;;5043316;28;19935;-58
2023/12/27 14:22:20;;;;;;;;;;;0.70;99.90;;;;;;5053522;28;19928;-59
2023/12/27 14:24:47;;;;;;;;;;;0.70;99.90;;;;;;5057569;28;19929;-58
2023/12/27 14:27:13;;;;;;;;;;;0.70;99.90;;;;;;5058353;28;19975;-63
2023/12/27 14:29:40;;;;;;;;;;;0.70;99.90;;;;;;5053918;28;19932;-59
2023/12/27 14:32:07;;;;;;;;;;;0.70;99.90;;;;;;5056738;28;19955;-59
2023/12/27 14:34:34;;;;;;;;;;;0.70;99.90;;;;;;5050774;28;20421;-59